Aérodrome :
LOGIN :

S'inscrire | Disclaimer

   EN    FR    IT 

 










Légende :    VFR   VFR Marginal   IFR   IFR Intensif   IFR Très Intensif
Visi : 
Plafond : 
>= 8 km
>= 3000ft
5 à 8 km
1000 à 3000 ft
1500m à 5 km
500 à 1000 ft
800 à 1500m
200 à 500 ft
< 800m
< 200 ft
Symboles :   Orages  Brouillard  Fortes neiges  Fortes précipitations  Vent > 20 kt
SIGMETs :   Divers  Orages  Givrage  Turbulence  Onde Orograph.  Cendres Volcan.







- Altitude de l'aérodrome : 286 ft
- Code IATA : FFD


EGVA - RAF Fairford

DERNIER METAR :
  • 221436Z AUTO 21007KT M -RA OVC008 03/02 A2950 RMK AO2 RAB07E23RAB36 OVC V BKN CIG 007 RWY09 SLP997 RVRNO $

METARs EXPIRÉS :
  • 221423Z AUTO 21004KT M M BKN008 OVC013 02/01 A2951 RMK AO2 RAB07E23 CIG 008V013 BKN V SCT CIG 007 RWY09 SLP000 RVRNO $
  • 221407Z AUTO 23005KT M -RA BKN012 OVC018 02/01 A2951 RMK AO2 RAB07 CIG 012V018 SLP000 RVRNO $
  • 221356Z AUTO 22005KT M M OVC018 02/01 A2951 RMK AO2 RAB02E52 SLP000 P0000 T00240011 RVRNO $
  • 221352Z AUTO 23005KT M M OVC018 02/01 A2952 RMK AO2 RAB02E52 SLP003 RVRNO $
  • 221342Z AUTO 23005KT M -RA FEW008 OVC018 02/01 A2952 RMK AO2 RAB02 SLP003 RVRNO $
  • 221322Z AUTO 24011KT M -RA FEW008 BKN021 BKN027 OVC034 03/01 A2953 RMK AO2 RAB02 CIG 021V035 CIG 016 RWY09 SLP006 RVRNO $
  • 221302Z AUTO 22004KT M -RA FEW030 BKN038 OVC047 04/01 A2954 RMK AO2 RAB02 SLP009 RVRNO $
  • 221241Z AUTO 22006KT M M FEW024 FEW030 SCT040 BKN048 BKN060 04/01 A2955 RMK AO2 SLP013 RVRNO $
  • 221156Z AUTO 23005KT M M BKN090 04/01 A2957 RMK AO2 SLP020 T00370014 10037 21013 57017 RVRNO $

Prévision TAF périmée.
Pas de NOTAMs connus pour ce terrain.
1 SIGMET publié pour la FIR London (EGTT) :
 
Turbulence forte
EGTT SIGMET 02 VALID 221430/221830 EGRR
EGTT LONDON FIR SEV TURB FCST WI N5500 W00530 - N5500 W00400 - N5334 W00245 - N5124 W00151 - N5107 W00402 - N5355 W00530 - N5500 W00530 FL160/400 MOV E 15KT NC=



MET'MAP, la Météo Aéronautique d'un coup d'oeil ! - Copyright ORBIFLY Décembre 2007 - Disclaimer

ORBIFLY MET'MAP TEAM :

Programmation & Développement : Alexandra Zaïnal
Conception & Développement : Baudouin d'Aumeries
Co-Programmation & Développement : Marc-Olivier Méhu
Soutien technique & logistique : Manuel Goepfert

Contact : metmap@orbifly.com




SOURCES & CREDITS :

   NOAA